createdAt,value
2023-01-01T00:01:55.410Z,96158.66
2023-01-01T00:06:57.124Z,96164.50
2023-01-01T00:11:58.676Z,96166.88
2023-01-01T00:17:00.515Z,96162.16
2023-01-01T00:22:14.729Z,96172.72
2023-01-01T00:27:23.910Z,96168.41
2023-01-01T00:32:25.497Z,96163.31
2023-01-01T00:37:28.249Z,96164.13
2023-01-01T00:42:29.716Z,96158.63
2023-01-01T00:47:31.262Z,96166.03
2023-01-01T00:52:32.775Z,96168.78
2023-01-01T00:57:35.145Z,96168.41
2023-01-01T01:02:36.811Z,96166.03
2023-01-01T01:07:39.779Z,96167.97
2023-01-01T01:12:41.635Z,96171.50
2023-01-01T01:17:43.179Z,96185.53
2023-01-01T01:22:44.766Z,96184.38
2023-01-01T01:27:46.298Z,96195.69
2023-01-01T01:32:48.042Z,96192.94
2023-01-01T01:37:49.568Z,96199.97
2023-01-01T01:42:51.439Z,96197.59
2023-01-01T01:47:58.978Z,96190.94
2023-01-01T01:53:08.999Z,96197.97
2023-01-01T01:58:13.267Z,96188.22
2023-01-01T02:03:20.196Z,96191.72
2023-01-01T02:08:21.937Z,96198.38
2023-01-01T02:13:23.540Z,96187.44
2023-01-01T02:18:50.904Z,96190.53
2023-01-01T02:24:20.816Z,96179.97
2023-01-01T02:29:33.112Z,96180.34
2023-01-01T02:34:43.263Z,96174.09
2023-01-01T02:39:51.524Z,96181.53
2023-01-01T02:44:55.655Z,96178.03
2023-01-01T02:50:09.391Z,96174.88
2023-01-01T02:55:41.022Z,96174.47
2023-01-01T03:00:43.280Z,96168.59
2023-01-01T03:06:22.872Z,96173.66
2023-01-01T03:11:29.563Z,96177.56
2023-01-01T03:16:40.631Z,96183.41
2023-01-01T03:21:50.435Z,96188.09
2023-01-01T03:26:56.807Z,96176.75
2023-01-01T03:32:01.158Z,96177.94
2023-01-01T03:37:10.980Z,96171.28
2023-01-01T03:42:19.453Z,96181.81
2023-01-01T03:47:20.924Z,96180.63
2023-01-01T03:52:51.227Z,96172.78
2023-01-01T03:58:02.292Z,96185.31
2023-01-01T04:03:13.081Z,96191.16
2023-01-01T04:08:35.384Z,96196.25
2023-01-01T04:13:47.249Z,96200.53
2023-01-01T04:18:48.797Z,96203.69
2023-01-01T04:23:50.385Z,96202.50
2023-01-01T04:28:51.935Z,96196.25
2023-01-01T04:33:54.555Z,96195.91
2023-01-01T04:38:56.958Z,96201.78
2023-01-01T04:43:58.586Z,96215.03
2023-01-01T04:49:00.194Z,96219.34
2023-01-01T04:54:02.297Z,96219.72
2023-01-01T04:59:03.898Z,96213.06
2023-01-01T05:04:05.502Z,96206.81
2023-01-01T05:09:09.763Z,96225.53
2023-01-01T05:14:11.387Z,96243.09
2023-01-01T05:19:14.013Z,96249.72
2023-01-01T05:24:15.870Z,96266.50
2023-01-01T05:29:17.779Z,96261.78
2023-01-01T05:34:19.398Z,96272.31
2023-01-01T05:39:20.935Z,96267.97
2023-01-01T05:44:22.537Z,96270.34
2023-01-01T05:49:24.089Z,96261.38
2023-01-01T05:54:25.594Z,96267.19
2023-01-01T05:59:27.098Z,96270.69
2023-01-01T06:04:28.655Z,96274.97
2023-01-01T06:09:30.229Z,96273.38
2023-01-01T06:14:31.797Z,96279.63
2023-01-01T06:19:33.292Z,96282.34
2023-01-01T06:24:38.987Z,96276.09
2023-01-01T06:29:41.205Z,96296.31
2023-01-01T06:34:42.768Z,96292.03
2023-01-01T06:39:44.293Z,96301.34
2023-01-01T06:44:46.014Z,96307.56
2023-01-01T06:49:47.551Z,96312.63
2023-01-01T06:54:49.146Z,96324.69
2023-01-01T06:59:50.848Z,96316.06
2023-01-01T07:04:52.978Z,96297.72
2023-01-01T07:09:54.580Z,96310.16
2023-01-01T07:14:56.250Z,96312.06
2023-01-01T07:19:57.735Z,96326.13
2023-01-01T07:24:59.221Z,96335.44
2023-01-01T07:30:00.765Z,96350.69
2023-01-01T07:35:02.536Z,96355.75
2023-01-01T07:40:04.565Z,96365.47
2023-01-01T07:50:34.186Z,96373.56
2023-01-01T07:55:36.055Z,96381.41
2023-01-01T08:00:37.637Z,96382.97
2023-01-01T08:05:39.206Z,96387.66
2023-01-01T08:10:40.722Z,96384.59
2023-01-01T08:15:42.273Z,96396.38
2023-01-01T08:20:43.896Z,96399.94
2023-01-01T08:25:45.443Z,96402.28
2023-01-01T08:30:46.983Z,96410.47
2023-01-01T08:35:53.827Z,96406.59
2023-01-01T08:40:55.953Z,96402.69
2023-01-01T08:45:59.350Z,96379.34
2023-01-01T08:51:01.356Z,96392.25
2023-01-01T08:56:05.775Z,96402.00
2023-01-01T09:01:08.718Z,96398.94
2023-01-01T09:06:10.283Z,96415.81
2023-01-01T09:11:22.993Z,96417.47
2023-01-01T09:16:24.804Z,96420.25
2023-01-01T09:21:26.462Z,96430.50
2023-01-01T09:26:28.090Z,96435.69
2023-01-01T09:31:29.650Z,96436.97
2023-01-01T09:36:32.479Z,96443.69
2023-01-01T09:41:40.051Z,96436.38
2023-01-01T09:46:41.657Z,96438.41
2023-01-01T09:51:50.103Z,96433.38
2023-01-01T09:56:58.564Z,96432.69
2023-01-01T10:02:28.244Z,96428.84
2023-01-01T10:07:49.990Z,96425.75
2023-01-01T10:13:31.582Z,96416.84
2023-01-01T10:18:38.325Z,96413.41
2023-01-01T10:24:00.326Z,96409.94
2023-01-01T10:29:09.777Z,96414.31
2023-01-01T10:34:28.529Z,96410.81
2023-01-01T10:39:30.228Z,96404.59
2023-01-01T10:44:34.643Z,96397.56
2023-01-01T10:49:54.156Z,96390.13
2023-01-01T10:54:55.722Z,96381.53
2023-01-01T11:00:25.446Z,96382.31
2023-01-01T11:05:26.982Z,96372.88
2023-01-01T11:10:31.184Z,96378.00
2023-01-01T11:15:38.907Z,96376.81
2023-01-01T11:20:41.573Z,96376.00
2023-01-01T11:25:59.252Z,96367.75
2023-01-01T11:31:23.972Z,96367.72
2023-01-01T11:36:35.041Z,96358.25
2023-01-01T11:41:45.104Z,96360.91
2023-01-01T11:46:47.745Z,96355.41
2023-01-01T11:51:49.481Z,96354.56
2023-01-01T11:56:57.969Z,96353.34
2023-01-01T12:02:02.172Z,96368.22
2023-01-01T12:07:08.302Z,96364.28
2023-01-01T12:12:18.429Z,96361.03
2023-01-01T12:17:38.257Z,96367.22
2023-01-01T12:22:41.372Z,96375.38
2023-01-01T12:28:36.562Z,96362.69
2023-01-01T12:34:23.500Z,96361.75
2023-01-01T12:40:02.788Z,96349.88
2023-01-01T12:45:18.248Z,96341.94
2023-01-01T12:51:03.175Z,96341.47
2023-01-01T12:56:09.712Z,96339.78
2023-01-01T13:01:22.436Z,96334.59
2023-01-01T13:06:37.714Z,96326.72
2023-01-01T13:11:44.966Z,96312.16
2023-01-01T13:16:57.778Z,96318.06
2023-01-01T13:22:20.406Z,96316.44
2023-01-01T13:27:57.126Z,96313.69
2023-01-01T13:33:29.402Z,96315.66
2023-01-01T13:38:51.164Z,96325.13
2023-01-01T13:44:12.506Z,96320.00
2023-01-01T13:49:32.279Z,96328.28
2023-01-01T13:55:11.477Z,96327.94
2023-01-01T14:00:25.345Z,96330.31
2023-01-01T14:05:35.792Z,96330.78
2023-01-01T14:10:37.878Z,96323.38
2023-01-01T14:15:50.396Z,96334.03
2023-01-01T14:20:53.668Z,96337.25
2023-01-01T14:25:55.647Z,96339.63
2023-01-01T14:31:04.284Z,96336.16
2023-01-01T14:36:28.023Z,96333.84
2023-01-01T14:41:39.388Z,96332.75
2023-01-01T14:46:48.008Z,96340.25
2023-01-01T14:51:57.326Z,96332.84
2023-01-01T14:56:59.535Z,96336.03
2023-01-01T15:02:14.298Z,96345.13
2023-01-01T15:07:25.643Z,96354.63
2023-01-01T15:12:28.357Z,96355.47
2023-01-01T15:17:45.170Z,96347.66
2023-01-01T15:22:47.901Z,96346.94
2023-01-01T15:27:54.932Z,96350.16
2023-01-01T15:33:05.244Z,96338.81
2023-01-01T15:38:18.793Z,96346.69
2023-01-01T15:43:25.412Z,96341.28
2023-01-01T15:48:39.498Z,96356.22
2023-01-01T15:53:59.488Z,96351.97
2023-01-01T15:59:27.678Z,96341.38
2023-01-01T16:04:29.591Z,96341.81
2023-01-01T16:09:32.897Z,96343.03
2023-01-01T16:14:34.607Z,96332.06
2023-01-01T16:19:36.134Z,96335.59
2023-01-01T16:24:37.620Z,96336.00
2023-01-01T16:29:43.040Z,96333.28
2023-01-01T16:34:45.028Z,96339.97
2023-01-01T16:39:46.524Z,96345.47
2023-01-01T16:44:48.044Z,96344.31
2023-01-01T16:49:49.599Z,96343.13
2023-01-01T16:54:51.165Z,96336.06
2023-01-01T16:59:52.656Z,96343.91
2023-01-01T17:04:54.194Z,96336.44
2023-01-01T17:09:55.701Z,96328.63
2023-01-01T17:14:57.274Z,96333.31
2023-01-01T17:19:58.819Z,96335.28
2023-01-01T17:25:00.375Z,96336.06
2023-01-01T17:30:03.080Z,96334.13
2023-01-01T17:35:05.484Z,96332.53
2023-01-01T17:40:07.690Z,96334.47
2023-01-01T17:45:09.801Z,96336.81
2023-01-01T17:50:11.608Z,96334.88
2023-01-01T17:55:13.245Z,96331.72
2023-01-01T18:00:15.137Z,96332.13
2023-01-01T18:05:17.047Z,96329.38
2023-01-01T18:10:18.550Z,96322.34
2023-01-01T18:15:20.055Z,96312.13
2023-01-01T18:20:21.592Z,96309.41
2023-01-01T18:25:23.261Z,96298.44
2023-01-01T18:30:24.835Z,96301.56
2023-01-01T18:35:26.373Z,96292.53
2023-01-01T18:40:31.240Z,96294.09
2023-01-01T18:45:34.332Z,96296.06
2023-01-01T18:50:36.624Z,96289.00
2023-01-01T18:55:38.495Z,96293.69
2023-01-01T19:00:40.458Z,96300.31
2023-01-01T19:05:42.123Z,96298.31
2023-01-01T19:10:55.270Z,96290.88
2023-01-01T19:16:24.321Z,96297.53
2023-01-01T19:21:26.262Z,96299.84
2023-01-01T19:26:29.001Z,96295.94
2023-01-01T19:31:30.576Z,96301.78
2023-01-01T19:36:32.311Z,96288.09
2023-01-01T19:41:34.162Z,96277.53
2023-01-01T19:46:35.852Z,96272.78
2023-01-01T19:51:37.432Z,96284.13
2023-01-01T19:56:38.953Z,96267.28
2023-01-01T20:01:40.718Z,96273.91
2023-01-01T20:06:42.512Z,96264.50
2023-01-01T20:11:46.092Z,96255.91
2023-01-01T20:16:51.301Z,96262.50
2023-01-01T20:22:11.530Z,96270.72
2023-01-01T20:27:14.609Z,96276.97
2023-01-01T20:32:16.920Z,96278.09
2023-01-01T20:37:37.212Z,96272.59
2023-01-01T20:42:39.020Z,96276.50
2023-01-01T20:47:40.980Z,96247.56
2023-01-01T20:52:42.579Z,96272.13
2023-01-01T20:57:44.222Z,96256.91
2023-01-01T21:02:45.938Z,96250.25
2023-01-01T21:07:47.683Z,96271.72
2023-01-01T21:12:49.225Z,96255.31
2023-01-01T21:17:50.772Z,96262.69
2023-01-01T21:22:53.843Z,96258.81
2023-01-01T21:27:55.845Z,96249.44
2023-01-01T21:32:57.421Z,96249.03
2023-01-01T21:38:00.323Z,96248.19
2023-01-01T21:43:02.079Z,96256.03
2023-01-01T21:48:14.463Z,96255.22
2023-01-01T21:53:22.582Z,96248.19
2023-01-01T21:58:53.010Z,96248.19
2023-01-01T22:04:02.287Z,96237.97
2023-01-01T22:09:16.194Z,96242.66
2023-01-01T22:14:21.253Z,96242.25
2023-01-01T22:19:24.373Z,96243.44
2023-01-01T22:24:35.447Z,96239.53
2023-01-01T22:29:36.957Z,96239.88
2023-01-01T22:34:38.507Z,96232.09
2023-01-01T22:39:40.020Z,96233.22
2023-01-01T22:44:41.661Z,96232.03
2023-01-01T22:49:51.358Z,96231.66
2023-01-01T22:54:52.906Z,96225.00
2023-01-01T22:59:54.498Z,96225.38
2023-01-01T23:04:56.101Z,96224.19
2023-01-01T23:10:00.508Z,96220.25
2023-01-01T23:15:20.976Z,96217.09
2023-01-01T23:20:22.746Z,96224.03
2023-01-01T23:25:24.527Z,96215.06
2023-01-01T23:30:26.078Z,96205.25
2023-01-01T23:35:27.650Z,96196.66
2023-01-01T23:40:29.186Z,96209.84
2023-01-01T23:45:30.781Z,96212.56
2023-01-01T23:50:32.898Z,96209.41
2023-01-01T23:55:34.475Z,96225.78
